createdAt,value
2022-10-09T00:01:13.743Z,1.73
2022-10-09T00:03:42.016Z,1.77
2022-10-09T00:06:10.104Z,1.33
2022-10-09T00:08:39.381Z,1.73
2022-10-09T00:11:08.859Z,1.80
2022-10-09T00:13:35.734Z,1.90
2022-10-09T00:16:08.261Z,1.55
2022-10-09T00:18:34.826Z,1.60
2022-10-09T00:21:01.697Z,1.70
2022-10-09T00:23:28.408Z,2.00
2022-10-09T00:26:00.382Z,2.20
2022-10-09T00:28:30.056Z,1.90
2022-10-09T00:30:56.953Z,1.40
2022-10-09T00:33:23.733Z,1.88
2022-10-09T00:35:50.687Z,1.80
2022-10-09T00:38:17.283Z,1.83
2022-10-09T00:40:44.000Z,2.10
2022-10-09T00:43:17.087Z,1.85
2022-10-09T00:45:49.929Z,1.63
2022-10-09T00:48:18.874Z,1.70
2022-10-09T00:50:51.943Z,2.27
2022-10-09T00:53:20.985Z,2.10
2022-10-09T00:55:47.605Z,1.63
2022-10-09T00:58:14.480Z,1.95
2022-10-09T01:00:41.268Z,1.65
2022-10-09T01:03:08.107Z,1.57
2022-10-09T01:05:49.931Z,1.70
2022-10-09T01:08:25.943Z,2.05
2022-10-09T01:10:55.374Z,1.70
2022-10-09T01:13:42.734Z,1.80
2022-10-09T01:16:35.425Z,1.90
2022-10-09T01:19:07.587Z,1.40
2022-10-09T01:21:42.852Z,1.30
2022-10-09T01:24:11.851Z,1.77
2022-10-09T01:27:10.199Z,1.63
2022-10-09T01:29:42.436Z,1.93
2022-10-09T01:32:12.239Z,1.52
2022-10-09T01:34:41.873Z,1.67
2022-10-09T01:37:10.978Z,1.75
2022-10-09T01:39:38.940Z,1.70
2022-10-09T01:42:05.867Z,1.57
2022-10-09T01:44:33.365Z,1.67
2022-10-09T01:47:00.705Z,1.80
2022-10-09T01:49:33.502Z,1.70
2022-10-09T01:52:24.145Z,1.73
2022-10-09T01:55:08.703Z,1.50
2022-10-09T01:57:46.991Z,1.48
2022-10-09T02:00:17.107Z,1.42
2022-10-09T02:02:44.735Z,1.58
2022-10-09T02:05:17.586Z,2.40
2022-10-09T02:07:43.984Z,1.53
2022-10-09T02:10:11.003Z,1.27
2022-10-09T02:12:42.264Z,1.50
2022-10-09T02:15:09.904Z,1.52
2022-10-09T02:17:42.540Z,1.20
2022-10-09T02:20:32.724Z,1.60
2022-10-09T02:23:02.319Z,1.65
2022-10-09T02:25:29.228Z,1.40
2022-10-09T02:27:55.997Z,1.50
2022-10-09T02:30:26.872Z,1.90
2022-10-09T02:32:54.485Z,2.23
2022-10-09T02:35:21.618Z,2.90
2022-10-09T02:37:49.092Z,2.05
2022-10-09T02:40:15.976Z,1.98
2022-10-09T02:42:42.391Z,1.67
2022-10-09T02:45:09.504Z,1.50
2022-10-09T02:47:35.956Z,1.20
2022-10-09T02:50:02.304Z,1.58
2022-10-09T02:52:28.964Z,1.90
2022-10-09T02:54:55.309Z,1.80
2022-10-09T02:57:21.733Z,1.80
2022-10-09T02:59:48.060Z,1.67
2022-10-09T03:02:15.028Z,1.90
2022-10-09T03:04:41.548Z,2.75
2022-10-09T03:07:07.978Z,1.88
2022-10-09T03:09:34.436Z,1.50
2022-10-09T03:12:00.772Z,1.70
2022-10-09T03:14:27.231Z,1.60
2022-10-09T03:16:53.644Z,1.88
2022-10-09T03:19:20.000Z,1.77
2022-10-09T03:21:46.336Z,2.17
2022-10-09T03:24:12.690Z,2.10
2022-10-09T03:26:39.092Z,2.03
2022-10-09T03:29:05.425Z,1.77
2022-10-09T03:31:52.546Z,1.95
2022-10-09T03:34:18.148Z,1.97
2022-10-09T03:36:44.652Z,2.05
2022-10-09T03:39:11.101Z,1.80
2022-10-09T03:41:37.478Z,2.20
2022-10-09T03:44:03.934Z,2.13
2022-10-09T03:46:30.342Z,2.13
2022-10-09T03:48:57.116Z,2.17
2022-10-09T03:51:23.465Z,2.50
2022-10-09T03:53:49.894Z,2.35
2022-10-09T03:56:16.285Z,2.38
2022-10-09T03:58:42.918Z,2.40
2022-10-09T04:01:09.618Z,2.65
2022-10-09T04:03:36.038Z,2.40
2022-10-09T04:06:02.679Z,2.78
2022-10-09T04:08:29.079Z,2.47
2022-10-09T04:10:59.578Z,2.67
2022-10-09T04:13:26.240Z,2.10
2022-10-09T04:15:53.997Z,3.15
2022-10-09T04:18:20.531Z,2.60
2022-10-09T04:20:51.191Z,2.53
2022-10-09T04:23:22.720Z,2.90
2022-10-09T04:25:55.823Z,2.45
2022-10-09T04:28:23.369Z,2.28
2022-10-09T04:30:50.076Z,2.50
2022-10-09T04:33:16.577Z,2.38
2022-10-09T04:35:43.704Z,2.63
2022-10-09T04:38:10.384Z,2.78
2022-10-09T04:40:37.027Z,2.65
2022-10-09T04:43:03.703Z,2.60
2022-10-09T04:45:30.065Z,2.83
2022-10-09T04:47:56.537Z,2.43
2022-10-09T04:50:23.139Z,2.58
2022-10-09T04:52:50.058Z,2.70
2022-10-09T04:55:16.771Z,2.58
2022-10-09T04:57:43.204Z,2.83
2022-10-09T05:00:10.243Z,2.47
2022-10-09T05:02:36.738Z,2.42
2022-10-09T05:05:03.270Z,2.85
2022-10-09T05:07:29.695Z,2.42
2022-10-09T05:09:56.032Z,2.90
2022-10-09T05:12:22.394Z,3.10
2022-10-09T05:14:48.781Z,2.08
2022-10-09T05:17:15.696Z,2.75
2022-10-09T05:19:43.545Z,2.85
2022-10-09T05:22:09.899Z,2.50
2022-10-09T05:24:36.221Z,2.60
2022-10-09T05:27:02.606Z,2.75
2022-10-09T05:29:28.942Z,2.90
2022-10-09T05:31:55.346Z,2.90
2022-10-09T05:34:21.762Z,2.78
2022-10-09T05:36:48.080Z,2.97
2022-10-09T05:39:14.535Z,2.63
2022-10-09T05:41:40.852Z,2.28
2022-10-09T05:44:07.263Z,2.95
2022-10-09T05:46:33.781Z,2.90
2022-10-09T05:49:05.158Z,2.77
2022-10-09T05:51:33.959Z,2.25
2022-10-09T05:54:04.023Z,2.55
2022-10-09T05:56:33.050Z,2.70
2022-10-09T05:59:01.983Z,2.25
2022-10-09T06:01:31.690Z,2.70
2022-10-09T06:03:59.821Z,2.88
2022-10-09T06:06:29.040Z,3.00
2022-10-09T06:08:55.846Z,2.90
2022-10-09T06:11:31.545Z,2.38
2022-10-09T06:14:00.201Z,3.07
2022-10-09T06:16:29.716Z,3.00
2022-10-09T06:18:56.892Z,3.00
2022-10-09T06:21:23.967Z,2.90
2022-10-09T06:23:56.295Z,2.83
2022-10-09T06:26:24.318Z,2.70
2022-10-09T06:28:51.253Z,2.53
2022-10-09T06:31:20.421Z,3.35
2022-10-09T06:33:48.730Z,2.50
2022-10-09T06:36:19.670Z,2.78
2022-10-09T06:38:46.894Z,2.93
2022-10-09T06:41:18.791Z,2.88
2022-10-09T06:43:50.746Z,2.85
2022-10-09T06:46:18.160Z,2.75
2022-10-09T06:48:44.538Z,2.90
2022-10-09T06:51:15.990Z,2.60
2022-10-09T06:53:50.871Z,2.08
2022-10-09T06:56:18.490Z,3.08
2022-10-09T06:58:45.781Z,3.10
2022-10-09T07:01:18.500Z,3.00
2022-10-09T07:03:47.941Z,3.17
2022-10-09T07:06:20.769Z,3.00
2022-10-09T07:08:52.994Z,3.15
2022-10-09T07:11:22.759Z,3.00
2022-10-09T07:13:51.784Z,2.67
2022-10-09T07:16:24.064Z,2.90
2022-10-09T07:18:51.055Z,2.38
2022-10-09T07:21:17.796Z,2.78
2022-10-09T07:23:44.443Z,2.63
2022-10-09T07:26:17.545Z,2.80
2022-10-09T07:28:45.199Z,2.67
2022-10-09T07:31:12.225Z,3.00
2022-10-09T07:33:39.070Z,2.90
2022-10-09T07:36:06.819Z,3.35
2022-10-09T07:38:33.214Z,3.05
2022-10-09T07:41:08.018Z,2.83
2022-10-09T07:43:35.716Z,2.83
2022-10-09T07:46:04.176Z,2.60
2022-10-09T07:48:30.936Z,2.83
2022-10-09T07:50:57.495Z,3.20
2022-10-09T07:53:23.971Z,3.20
2022-10-09T07:55:50.549Z,2.72
2022-10-09T07:58:17.844Z,2.50
2022-10-09T08:00:44.320Z,2.30
2022-10-09T08:03:11.140Z,2.72
2022-10-09T08:05:37.684Z,2.60
2022-10-09T08:08:04.049Z,2.75
2022-10-09T08:10:31.543Z,2.65
2022-10-09T08:12:58.034Z,2.85
2022-10-09T08:15:24.884Z,2.70
2022-10-09T08:17:54.974Z,2.80
2022-10-09T08:20:21.486Z,2.75
2022-10-09T08:22:48.323Z,2.70
2022-10-09T08:25:14.972Z,2.30
2022-10-09T08:27:41.308Z,3.10
2022-10-09T08:30:08.506Z,2.80
2022-10-09T08:32:34.884Z,3.15
2022-10-09T08:35:01.263Z,2.60
2022-10-09T08:37:27.607Z,2.45
2022-10-09T08:39:53.948Z,2.80
2022-10-09T08:42:39.168Z,2.33
2022-10-09T08:45:12.789Z,2.30
2022-10-09T08:47:50.518Z,2.97
2022-10-09T08:50:24.005Z,2.33
2022-10-09T08:53:08.315Z,2.30
2022-10-09T08:55:51.053Z,2.30
2022-10-09T08:58:20.303Z,2.60
2022-10-09T09:00:55.049Z,2.40
2022-10-09T09:03:43.647Z,2.90
2022-10-09T09:06:17.803Z,2.72
2022-10-09T09:09:02.107Z,2.30
2022-10-09T09:11:44.889Z,2.70
2022-10-09T09:14:35.977Z,2.90
2022-10-09T09:17:14.458Z,2.40
2022-10-09T09:19:48.901Z,2.58
2022-10-09T09:22:16.166Z,3.03
2022-10-09T09:24:51.125Z,2.63
2022-10-09T09:27:20.073Z,2.45
2022-10-09T09:29:54.466Z,2.65
2022-10-09T09:32:23.499Z,2.50
2022-10-09T09:34:50.215Z,2.42
2022-10-09T09:37:17.065Z,2.83
2022-10-09T09:40:31.374Z,2.30
2022-10-09T09:42:30.300Z,1.90
2022-10-09T09:45:04.030Z,2.60
2022-10-09T09:47:38.849Z,2.10
2022-10-09T09:50:06.273Z,2.27
2022-10-09T09:52:38.585Z,2.17
2022-10-09T09:55:05.890Z,2.40
2022-10-09T09:57:37.156Z,2.40
2022-10-09T10:00:15.812Z,2.10
2022-10-09T10:02:42.383Z,2.23
2022-10-09T10:05:24.771Z,2.67
2022-10-09T10:07:51.709Z,2.20
2022-10-09T10:10:29.095Z,2.40
2022-10-09T10:12:59.098Z,2.03
2022-10-09T10:15:28.501Z,1.87
2022-10-09T10:18:03.579Z,2.08
2022-10-09T10:20:33.786Z,2.30
2022-10-09T10:23:00.949Z,1.65
2022-10-09T10:25:32.526Z,1.80
2022-10-09T10:28:18.069Z,2.20
2022-10-09T10:30:45.619Z,1.92
2022-10-09T10:33:29.298Z,1.67
2022-10-09T10:35:58.207Z,1.67
2022-10-09T10:38:42.472Z,1.90
2022-10-09T10:41:09.044Z,1.83
2022-10-09T10:43:38.713Z,2.67
2022-10-09T10:46:25.361Z,1.85
2022-10-09T10:48:52.339Z,1.63
2022-10-09T10:51:34.055Z,2.00
2022-10-09T10:54:28.216Z,1.80
2022-10-09T10:57:08.762Z,2.40
2022-10-09T10:59:41.974Z,2.88
2022-10-09T11:02:32.478Z,2.20
2022-10-09T11:05:18.123Z,2.88
2022-10-09T11:07:59.791Z,2.73
2022-10-09T11:11:07.334Z,2.53
2022-10-09T11:13:50.448Z,2.28
2022-10-09T11:16:45.571Z,2.00
2022-10-09T11:19:56.790Z,2.30
2022-10-09T11:23:05.196Z,2.10
2022-10-09T11:25:53.614Z,1.42
2022-10-09T11:28:28.511Z,1.80
2022-10-09T11:31:10.197Z,1.65
2022-10-09T11:33:41.557Z,1.85
2022-10-09T11:36:18.565Z,1.90
2022-10-09T11:39:23.782Z,2.20
2022-10-09T11:41:53.421Z,1.80
2022-10-09T11:44:22.773Z,2.15
2022-10-09T11:47:21.603Z,2.13
2022-10-09T11:49:57.251Z,1.80
2022-10-09T11:52:38.599Z,1.33
2022-10-09T11:55:26.624Z,1.52
2022-10-09T11:57:53.476Z,1.67
2022-10-09T12:00:33.226Z,1.95
2022-10-09T12:03:03.294Z,1.67
2022-10-09T12:05:35.960Z,1.60
2022-10-09T12:08:18.295Z,1.50
2022-10-09T12:10:53.547Z,1.60
2022-10-09T12:13:36.833Z,1.67
2022-10-09T12:16:03.868Z,1.30
2022-10-09T12:18:34.728Z,1.40
2022-10-09T12:21:06.881Z,1.80
2022-10-09T12:23:37.309Z,1.77
2022-10-09T12:26:04.638Z,1.60
2022-10-09T12:28:44.696Z,1.50
2022-10-09T12:31:25.847Z,1.70
2022-10-09T12:33:57.521Z,1.42
2022-10-09T12:36:30.009Z,1.35
2022-10-09T12:38:56.640Z,1.30
2022-10-09T12:41:32.202Z,1.50
2022-10-09T12:43:59.539Z,1.45
2022-10-09T12:46:31.812Z,1.27
2022-10-09T12:49:01.079Z,1.70
2022-10-09T12:51:30.081Z,1.25
2022-10-09T12:53:57.104Z,1.30
2022-10-09T12:56:38.092Z,1.23
2022-10-09T12:59:07.085Z,1.08
2022-10-09T13:01:35.089Z,1.13
2022-10-09T13:04:04.996Z,1.15
2022-10-09T13:06:44.662Z,1.53
2022-10-09T13:09:34.118Z,1.38
2022-10-09T13:12:16.156Z,1.08
2022-10-09T13:14:46.092Z,1.40
2022-10-09T13:20:18.638Z,1.93
2022-10-09T13:22:56.320Z,2.00
2022-10-09T13:25:39.447Z,1.92
2022-10-09T13:28:06.429Z,1.55
2022-10-09T13:30:33.580Z,1.60
2022-10-09T13:33:00.173Z,1.83
2022-10-09T13:35:26.636Z,2.15
2022-10-09T13:37:53.219Z,2.20
2022-10-09T13:40:21.730Z,2.25
2022-10-09T13:42:55.673Z,1.70
2022-10-09T13:45:22.856Z,2.00
2022-10-09T13:47:49.546Z,1.92
2022-10-09T13:50:17.839Z,2.08
2022-10-09T13:52:44.291Z,1.95
2022-10-09T13:55:11.155Z,1.98
2022-10-09T13:57:37.970Z,2.07
2022-10-09T14:00:06.383Z,1.88
2022-10-09T14:02:32.852Z,1.73
2022-10-09T14:04:59.348Z,1.80
2022-10-09T14:07:25.873Z,1.90
2022-10-09T14:09:52.359Z,2.00
2022-10-09T14:12:18.812Z,1.95
2022-10-09T14:14:45.223Z,1.50
2022-10-09T14:17:11.687Z,1.70
2022-10-09T14:19:38.160Z,1.90
2022-10-09T14:22:04.551Z,1.80
2022-10-09T14:24:31.002Z,1.58
2022-10-09T14:26:57.526Z,1.83
2022-10-09T14:29:24.070Z,2.20
2022-10-09T14:31:53.874Z,1.85
2022-10-09T14:34:20.517Z,2.07
2022-10-09T14:36:47.191Z,2.05
2022-10-09T14:39:13.606Z,2.20
2022-10-09T14:41:40.776Z,1.73
2022-10-09T14:44:09.566Z,2.10
2022-10-09T14:46:37.830Z,1.53
2022-10-09T14:49:07.460Z,1.90
2022-10-09T14:51:37.125Z,1.45
2022-10-09T14:54:04.560Z,2.20
2022-10-09T14:56:31.115Z,1.90
2022-10-09T14:59:00.537Z,1.70
2022-10-09T15:01:28.022Z,2.05
2022-10-09T15:03:54.557Z,1.73
2022-10-09T15:06:24.893Z,1.73
2022-10-09T15:08:55.288Z,1.35
2022-10-09T15:11:22.097Z,1.63
2022-10-09T15:13:48.570Z,1.70
2022-10-09T15:16:18.260Z,1.80
2022-10-09T15:18:45.425Z,2.13
2022-10-09T15:21:15.020Z,1.65
2022-10-09T15:23:41.798Z,1.57
2022-10-09T15:26:08.785Z,1.30
2022-10-09T15:28:39.842Z,1.42
2022-10-09T15:31:14.779Z,1.60
2022-10-09T15:33:41.245Z,1.42
2022-10-09T15:36:07.642Z,1.57
2022-10-09T15:38:34.140Z,1.27
2022-10-09T15:41:00.507Z,1.17
2022-10-09T15:43:27.348Z,1.30
2022-10-09T15:46:02.522Z,0.95
2022-10-09T15:48:29.290Z,1.30
2022-10-09T15:50:55.908Z,1.05
2022-10-09T15:53:24.582Z,1.60
2022-10-09T15:55:52.981Z,1.15
2022-10-09T15:58:20.394Z,0.98
2022-10-09T16:00:49.554Z,1.33
2022-10-09T16:03:18.928Z,0.90
2022-10-09T16:05:48.909Z,0.85
2022-10-09T16:08:17.544Z,0.90
2022-10-09T16:10:49.053Z,0.85
2022-10-09T16:13:16.217Z,0.80
2022-10-09T16:15:43.860Z,0.88
2022-10-09T16:18:11.207Z,1.10
2022-10-09T16:20:38.831Z,0.90
2022-10-09T16:23:06.457Z,1.13
2022-10-09T16:25:33.767Z,1.13
2022-10-09T16:28:06.167Z,1.17
2022-10-09T16:30:33.614Z,1.00
2022-10-09T16:33:00.030Z,1.20
2022-10-09T16:35:28.753Z,1.30
2022-10-09T16:38:00.549Z,1.17
2022-10-09T16:40:56.870Z,1.13
2022-10-09T16:43:14.094Z,1.13
2022-10-09T16:45:44.096Z,1.45
2022-10-09T16:48:10.662Z,0.90
2022-10-09T16:50:42.276Z,1.70
2022-10-09T16:53:09.211Z,1.00
2022-10-09T16:55:35.922Z,1.15
2022-10-09T16:58:02.345Z,1.60
2022-10-09T17:00:28.984Z,1.02
2022-10-09T17:02:55.598Z,1.30
2022-10-09T17:05:21.984Z,0.85
2022-10-09T17:07:48.623Z,1.10
2022-10-09T17:10:15.427Z,1.10
2022-10-09T17:12:42.280Z,1.00
2022-10-09T17:15:08.790Z,1.60
2022-10-09T17:17:35.115Z,1.52
2022-10-09T17:20:01.593Z,1.15
2022-10-09T17:22:27.976Z,1.30
2022-10-09T17:24:54.497Z,1.38
2022-10-09T17:27:20.994Z,1.30
2022-10-09T17:29:47.438Z,1.83
2022-10-09T17:32:13.867Z,1.85
2022-10-09T17:34:45.740Z,1.88
2022-10-09T17:37:13.130Z,2.42
2022-10-09T17:39:39.963Z,1.73
2022-10-09T17:42:06.388Z,2.13
2022-10-09T17:44:32.759Z,2.10
2022-10-09T17:47:00.722Z,2.30
2022-10-09T17:49:27.610Z,2.10
2022-10-09T17:51:54.510Z,1.92
2022-10-09T17:54:21.351Z,1.80
2022-10-09T17:56:47.747Z,1.80
2022-10-09T17:59:17.251Z,2.05
2022-10-09T18:01:44.005Z,2.72
2022-10-09T18:04:15.860Z,2.00
2022-10-09T18:06:42.411Z,1.75
2022-10-09T18:09:08.973Z,2.00
2022-10-09T18:11:35.406Z,2.20
2022-10-09T18:14:01.993Z,2.20
2022-10-09T18:16:36.323Z,2.00
2022-10-09T18:19:12.105Z,1.90
2022-10-09T18:21:41.589Z,1.92
2022-10-09T18:24:08.070Z,1.90
2022-10-09T18:26:34.524Z,1.73
2022-10-09T18:29:01.647Z,2.13
2022-10-09T18:31:28.520Z,1.92
2022-10-09T18:33:54.947Z,1.80
2022-10-09T18:36:24.189Z,2.03
2022-10-09T18:38:53.826Z,2.08
2022-10-09T18:41:22.506Z,2.30
2022-10-09T18:43:49.991Z,1.90
2022-10-09T18:46:17.703Z,2.40
2022-10-09T18:48:44.826Z,2.17
2022-10-09T18:51:15.696Z,2.50
2022-10-09T18:53:45.282Z,2.00
2022-10-09T18:56:12.293Z,2.50
2022-10-09T18:58:41.934Z,2.13
2022-10-09T19:01:08.621Z,2.10
2022-10-09T19:03:36.719Z,2.30
2022-10-09T19:06:04.249Z,2.08
2022-10-09T19:08:30.670Z,2.08
2022-10-09T19:10:57.065Z,2.30
2022-10-09T19:13:23.460Z,2.17
2022-10-09T19:15:54.832Z,3.10
2022-10-09T19:18:22.117Z,2.53
2022-10-09T19:20:48.729Z,2.20
2022-10-09T19:23:15.738Z,2.33
2022-10-09T19:25:49.365Z,2.70
2022-10-09T19:28:16.161Z,1.80
2022-10-09T19:30:43.459Z,2.65
2022-10-09T19:33:10.367Z,3.03
2022-10-09T19:35:45.944Z,2.75
2022-10-09T19:38:13.086Z,3.00
2022-10-09T19:40:39.632Z,2.67
2022-10-09T19:43:05.994Z,2.17
2022-10-09T19:45:32.712Z,2.45
2022-10-09T19:47:59.666Z,2.47
2022-10-09T19:50:26.259Z,2.55
2022-10-09T19:52:52.588Z,2.60
2022-10-09T19:55:18.987Z,2.63
2022-10-09T19:57:45.479Z,2.75
2022-10-09T20:00:12.329Z,3.20
2022-10-09T20:02:38.795Z,3.60
2022-10-09T20:05:05.653Z,3.20
2022-10-09T20:07:32.073Z,3.10
2022-10-09T20:09:58.842Z,3.88
2022-10-09T20:12:25.351Z,4.22
2022-10-09T20:14:51.715Z,3.95
2022-10-09T20:17:18.144Z,3.67
2022-10-09T20:19:45.784Z,3.35
2022-10-09T20:22:12.284Z,3.33
2022-10-09T20:24:38.900Z,3.15
2022-10-09T20:27:05.287Z,3.05
2022-10-09T20:29:31.698Z,3.43
2022-10-09T20:31:58.315Z,3.35
2022-10-09T20:34:26.899Z,3.20
2022-10-09T20:36:53.819Z,2.63
2022-10-09T20:39:21.349Z,3.08
2022-10-09T20:41:48.332Z,3.17
2022-10-09T20:44:15.292Z,3.20
2022-10-09T20:46:41.793Z,3.15
2022-10-09T20:49:11.952Z,3.03
2022-10-09T20:51:39.189Z,2.92
2022-10-09T20:54:06.796Z,3.13
2022-10-09T20:56:34.106Z,3.40
2022-10-09T20:59:01.435Z,3.80
2022-10-09T21:01:28.738Z,3.40
2022-10-09T21:03:57.104Z,3.05
2022-10-09T21:06:23.872Z,3.37
2022-10-09T21:08:50.747Z,3.38
2022-10-09T21:11:18.440Z,4.18
2022-10-09T21:13:46.458Z,3.65
2022-10-09T21:16:16.461Z,4.15
2022-10-09T21:18:43.378Z,3.67
2022-10-09T21:21:16.662Z,4.20
2022-10-09T21:23:44.777Z,3.55
2022-10-09T21:26:13.988Z,3.80
2022-10-09T21:28:40.622Z,3.90
2022-10-09T21:31:11.647Z,4.17
2022-10-09T21:33:38.135Z,3.63
2022-10-09T21:36:11.136Z,3.85
2022-10-09T21:38:37.975Z,4.00
2022-10-09T21:41:04.585Z,3.35
2022-10-09T21:43:30.983Z,3.40
2022-10-09T21:45:57.322Z,4.13
2022-10-09T21:48:23.708Z,3.40
2022-10-09T21:50:50.126Z,3.10
2022-10-09T21:53:16.496Z,3.70
2022-10-09T21:55:42.927Z,3.90
2022-10-09T21:58:10.357Z,2.80
2022-10-09T22:00:36.844Z,3.35
2022-10-09T22:03:03.502Z,3.17
2022-10-09T22:05:29.881Z,3.47
2022-10-09T22:07:56.662Z,2.90
2022-10-09T22:10:23.123Z,2.85
2022-10-09T22:12:49.870Z,3.38
2022-10-09T22:15:16.906Z,2.97
2022-10-09T22:17:43.321Z,2.58
2022-10-09T22:20:09.920Z,3.20
2022-10-09T22:22:36.645Z,3.00
2022-10-09T22:25:03.305Z,3.50
2022-10-09T22:27:29.709Z,3.30
2022-10-09T22:29:56.216Z,3.00
2022-10-09T22:32:22.790Z,2.63
2022-10-09T22:34:54.151Z,3.42
2022-10-09T22:37:21.121Z,2.95
2022-10-09T22:39:49.004Z,3.30
2022-10-09T22:42:15.771Z,3.45
2022-10-09T22:44:43.084Z,3.13
2022-10-09T22:47:09.734Z,2.92
2022-10-09T22:49:36.246Z,2.80
2022-10-09T22:52:02.649Z,3.17
2022-10-09T22:54:29.077Z,2.70
2022-10-09T22:56:55.803Z,2.70
2022-10-09T22:59:22.411Z,3.03
2022-10-09T23:01:53.294Z,3.10
2022-10-09T23:04:21.497Z,3.03
2022-10-09T23:06:56.600Z,2.90
2022-10-09T23:09:25.312Z,3.17
2022-10-09T23:11:51.873Z,2.90
2022-10-09T23:14:19.325Z,2.97
2022-10-09T23:16:45.875Z,2.75
2022-10-09T23:19:12.894Z,2.80
2022-10-09T23:21:41.561Z,2.80
2022-10-09T23:24:10.455Z,2.50
2022-10-09T23:26:38.404Z,2.72
2022-10-09T23:29:08.430Z,2.92
2022-10-09T23:31:35.626Z,2.97
2022-10-09T23:34:03.544Z,2.77
2022-10-09T23:36:30.212Z,2.95
2022-10-09T23:38:58.365Z,2.70
2022-10-09T23:41:27.002Z,2.53
2022-10-09T23:43:54.427Z,2.45
2022-10-09T23:46:23.771Z,2.90
2022-10-09T23:48:51.959Z,3.08
2022-10-09T23:51:20.160Z,2.90
2022-10-09T23:53:47.416Z,2.78
2022-10-09T23:56:18.829Z,2.70
2022-10-09T23:58:46.222Z,2.70
